Time;durP1;ratioP1;P1;durP2;ratioP2;P2;SDS_P1;SDS_P2;PMS_P1;PMS_P2;Temp;Humidity;BMP_temperature;BMP_pressure;BME280_temperature;BME280_humidity;BME280_pressure;Samples;Min_cycle;Max_cycle;Signal;HPM_P1;HPM_P2
2022/08/27 00:02:16;;;;;;;;;;;12.60;99.90;;;;;;5055862;28;19949;-71
2022/08/27 00:04:43;;;;;;;;;;;12.60;99.90;;;;;;5055832;28;19913;-69
2022/08/27 00:07:10;;;;;;;;;;;12.70;99.90;;;;;;5055545;28;19921;-71
2022/08/27 00:09:37;;;;;;;;;;;12.70;99.90;;;;;;5057030;28;19915;-71
2022/08/27 00:12:04;;;;;;;;;;;12.70;99.90;;;;;;5067256;28;20438;-72
2022/08/27 00:14:31;;;;;;;;;;;12.70;99.90;;;;;;5066270;28;20011;-69
2022/08/27 00:16:58;;;;;;;;;;;12.70;99.90;;;;;;5057661;28;19948;-70
2022/08/27 00:19:25;;;;;;;;;;;12.80;99.90;;;;;;5056368;28;19999;-72
2022/08/27 00:21:54;;;;;;;;;;;12.80;99.90;;;;;;5055518;28;20278;-70
2022/08/27 00:24:21;;;;;;;;;;;12.90;99.90;;;;;;5055748;28;19909;-73
2022/08/27 00:26:52;;;;;;;;;;;12.90;99.90;;;;;;5055497;28;19967;-72
2022/08/27 00:29:20;;;;;;;;;;;12.90;99.90;;;;;;5055510;28;19909;-71
2022/08/27 00:31:47;;;;;;;;;;;13.00;99.90;;;;;;5054909;28;20023;-69
2022/08/27 00:34:14;;;;;;;;;;;13.10;99.90;;;;;;5055484;28;19913;-72
2022/08/27 00:36:41;;;;;;;;;;;13.10;99.90;;;;;;5063120;28;19913;-71
2022/08/27 00:39:07;;;;;;;;;;;13.10;99.90;;;;;;5068264;28;19909;-72
2022/08/27 00:41:34;;;;;;;;;;;13.20;99.90;;;;;;5055494;28;20370;-71
2022/08/27 00:44:01;;;;;;;;;;;13.30;99.90;;;;;;5055089;28;19915;-70
2022/08/27 00:46:31;;;;;;;;;;;13.30;99.90;;;;;;5054844;28;20339;-70
2022/08/27 00:49:00;;;;;;;;;;;13.30;99.90;;;;;;5054979;28;19909;-69
2022/08/27 00:51:28;;;;;;;;;;;13.20;99.90;;;;;;5054399;28;20000;-69
2022/08/27 00:53:56;;;;;;;;;;;13.30;99.90;;;;;;5054530;28;19909;-72
2022/08/27 00:56:25;;;;;;;;;;;13.30;99.90;;;;;;5054722;28;20302;-70
2022/08/27 00:58:53;;;;;;;;;;;13.30;99.90;;;;;;5054701;28;19918;-69
2022/08/27 01:01:28;;;;;;;;;;;13.20;99.90;;;;;;5054725;28;19908;-70
2022/08/27 01:03:57;;;;;;;;;;;13.30;99.90;;;;;;5054343;28;19992;-70
2022/08/27 01:06:27;;;;;;;;;;;13.30;99.90;;;;;;5053138;28;19974;-72
2022/08/27 01:08:57;;;;;;;;;;;13.30;99.90;;;;;;5054526;28;19921;-72
2022/08/27 01:11:24;;;;;;;;;;;13.40;99.90;;;;;;5054420;28;19909;-69
2022/08/27 01:13:51;;;;;;;;;;;13.30;99.90;;;;;;5054356;28;19912;-70
2022/08/27 01:16:19;;;;;;;;;;;13.40;99.90;;;;;;5054405;28;19909;-71
2022/08/27 01:18:46;;;;;;;;;;;13.40;99.90;;;;;;5054327;28;19987;-71
2022/08/27 01:21:31;;;;;;;;;;;13.40;99.90;;;;;;5054171;28;19913;-72
2022/08/27 01:24:01;;;;;;;;;;;13.40;99.90;;;;;;5054006;28;19999;-71
2022/08/27 01:26:29;;;;;;;;;;;13.40;99.90;;;;;;5054270;28;19909;-69
2022/08/27 01:28:56;;;;;;;;;;;13.40;99.90;;;;;;5054243;28;19909;-70
2022/08/27 01:31:22;;;;;;;;;;;13.40;99.90;;;;;;5054221;28;19948;-69
2022/08/27 01:33:56;;;;;;;;;;;13.30;99.90;;;;;;5053721;28;19908;-69
2022/08/27 01:36:23;;;;;;;;;;;13.40;99.90;;;;;;5054367;28;20385;-71
2022/08/27 01:38:50;;;;;;;;;;;13.50;99.90;;;;;;5053883;28;19916;-70
2022/08/27 01:41:17;;;;;;;;;;;13.60;99.90;;;;;;5053675;28;20285;-70
2022/08/27 01:43:44;;;;;;;;;;;13.70;99.90;;;;;;5053772;28;20003;-69
2022/08/27 01:46:11;;;;;;;;;;;13.80;99.90;;;;;;5053801;28;20379;-71
2022/08/27 01:48:37;;;;;;;;;;;13.80;99.90;;;;;;5053774;28;20003;-69
2022/08/27 01:51:04;;;;;;;;;;;13.70;99.90;;;;;;5053443;28;20367;-70
2022/08/27 01:53:31;;;;;;;;;;;13.70;99.90;;;;;;5053840;28;20355;-71
2022/08/27 01:55:58;;;;;;;;;;;13.80;99.90;;;;;;5052328;28;20274;-71
2022/08/27 01:58:26;;;;;;;;;;;13.90;99.90;;;;;;5053712;28;19917;-68
2022/08/27 02:00:56;;;;;;;;;;;14.00;99.90;;;;;;5053548;28;19913;-69
2022/08/27 02:03:23;;;;;;;;;;;14.00;99.90;;;;;;5052568;28;19912;-69
2022/08/27 02:05:49;;;;;;;;;;;13.90;99.90;;;;;;5053339;28;20453;-71
2022/08/27 02:08:16;;;;;;;;;;;13.80;99.90;;;;;;5053201;28;19956;-70
2022/08/27 02:10:44;;;;;;;;;;;13.90;99.90;;;;;;5053366;28;20003;-72
2022/08/27 02:13:12;;;;;;;;;;;14.00;99.90;;;;;;5068841;28;19958;-72
2022/08/27 02:15:39;;;;;;;;;;;14.10;99.90;;;;;;5052950;28;19972;-72
2022/08/27 02:18:07;;;;;;;;;;;14.20;99.90;;;;;;5052700;28;19947;-70
2022/08/27 02:20:34;;;;;;;;;;;14.40;99.90;;;;;;5053131;28;20340;-71
2022/08/27 02:23:01;;;;;;;;;;;14.50;99.90;;;;;;5053348;28;20359;-70
2022/08/27 02:25:27;;;;;;;;;;;14.50;99.90;;;;;;5053060;28;19909;-70
2022/08/27 02:27:56;;;;;;;;;;;14.50;99.90;;;;;;5056863;28;19959;-69
2022/08/27 02:30:23;;;;;;;;;;;14.50;99.90;;;;;;5073432;28;20000;-71
2022/08/27 02:32:51;;;;;;;;;;;14.50;99.90;;;;;;5053602;28;19909;-71
2022/08/27 02:35:19;;;;;;;;;;;14.40;99.90;;;;;;5052872;28;19913;-70
2022/08/27 02:37:46;;;;;;;;;;;14.30;99.90;;;;;;5052310;28;19958;-70
2022/08/27 02:40:16;;;;;;;;;;;14.30;99.90;;;;;;5052743;28;20435;-71
2022/08/27 02:42:43;;;;;;;;;;;14.30;99.90;;;;;;5052806;28;20374;-69
2022/08/27 02:45:10;;;;;;;;;;;14.30;99.90;;;;;;5052846;28;19954;-70
2022/08/27 02:47:37;;;;;;;;;;;14.30;99.90;;;;;;5052922;28;20356;-69
2022/08/27 02:50:04;;;;;;;;;;;14.20;99.90;;;;;;5052739;28;19913;-70
2022/08/27 02:52:31;;;;;;;;;;;14.20;99.90;;;;;;5052433;28;19991;-70
2022/08/27 02:55:00;;;;;;;;;;;14.30;99.90;;;;;;5052814;28;19909;-70
2022/08/27 02:57:27;;;;;;;;;;;14.20;99.90;;;;;;5052592;28;19956;-71
2022/08/27 02:59:54;;;;;;;;;;;14.30;99.90;;;;;;5052407;28;19909;-71
2022/08/27 03:02:21;;;;;;;;;;;14.20;99.90;;;;;;5052672;28;19971;-72
2022/08/27 03:04:48;;;;;;;;;;;14.20;99.90;;;;;;5052565;28;19909;-71
2022/08/27 03:07:15;;;;;;;;;;;14.20;99.90;;;;;;5052279;28;20287;-70
2022/08/27 03:09:41;;;;;;;;;;;14.10;99.90;;;;;;5052702;28;19916;-71
2022/08/27 03:12:08;;;;;;;;;;;14.00;99.90;;;;;;5052597;28;20394;-73
2022/08/27 03:14:35;;;;;;;;;;;13.90;99.90;;;;;;5055686;28;19974;-70
2022/08/27 03:19:49;;;;;;;;;;;13.90;99.90;;;;;;5054993;28;19916;-73
2022/08/27 03:22:16;;;;;;;;;;;13.90;99.90;;;;;;5056459;28;19943;-71
2022/08/27 03:24:42;;;;;;;;;;;13.90;99.90;;;;;;5056680;28;19913;-73
2022/08/27 03:27:09;;;;;;;;;;;14.00;99.90;;;;;;5056391;28;19916;-72
2022/08/27 03:29:36;;;;;;;;;;;14.10;99.90;;;;;;5056460;28;19913;-70
2022/08/27 03:32:05;;;;;;;;;;;14.10;99.90;;;;;;5056287;28;20319;-72
2022/08/27 03:34:32;;;;;;;;;;;14.20;99.90;;;;;;5056465;28;19962;-73
2022/08/27 03:37:00;;;;;;;;;;;14.30;99.90;;;;;;5056366;28;20282;-72
2022/08/27 03:39:26;;;;;;;;;;;14.30;99.90;;;;;;5056168;28;19913;-70
2022/08/27 03:41:54;;;;;;;;;;;14.20;99.90;;;;;;5055781;28;19909;-73
2022/08/27 03:44:23;;;;;;;;;;;14.20;99.90;;;;;;5056070;28;19913;-71
2022/08/27 03:46:53;;;;;;;;;;;14.20;99.90;;;;;;5055969;28;19932;-71
2022/08/27 03:49:20;;;;;;;;;;;14.30;99.90;;;;;;5055966;28;19916;-72
2022/08/27 03:51:48;;;;;;;;;;;14.30;99.90;;;;;;5055703;28;19913;-71
2022/08/27 03:54:14;;;;;;;;;;;14.20;99.90;;;;;;5056112;28;20370;-71
2022/08/27 03:56:42;;;;;;;;;;;14.20;99.90;;;;;;5059883;28;19959;-71
2022/08/27 04:10:41;;;;;;;;;;;14.50;99.90;;;;;;5046549;28;19924;-71
2022/08/27 04:13:08;;;;;;;;;;;14.40;99.90;;;;;;5046428;28;19913;-72
2022/08/27 04:15:35;;;;;;;;;;;14.60;99.90;;;;;;5045702;28;20277;-69
2022/08/27 04:18:01;;;;;;;;;;;14.60;99.90;;;;;;5046352;28;20278;-72
2022/08/27 04:20:28;;;;;;;;;;;14.70;99.90;;;;;;5046008;28;19956;-72
2022/08/27 04:22:55;;;;;;;;;;;14.70;99.90;;;;;;5045872;28;20446;-71
2022/08/27 04:25:21;;;;;;;;;;;14.80;99.90;;;;;;5045955;28;19970;-71
2022/08/27 04:27:48;;;;;;;;;;;14.70;99.90;;;;;;5045950;28;19913;-71
2022/08/27 04:30:15;;;;;;;;;;;14.70;99.90;;;;;;5045894;28;20370;-72
2022/08/27 04:32:42;;;;;;;;;;;14.70;99.90;;;;;;5045839;28;19909;-71
2022/08/27 04:35:10;;;;;;;;;;;14.60;99.90;;;;;;5045311;28;19932;-71
2022/08/27 04:37:37;;;;;;;;;;;14.40;99.90;;;;;;5045771;28;19962;-70
2022/08/27 04:40:04;;;;;;;;;;;14.60;99.90;;;;;;5045874;28;19921;-71
2022/08/27 04:42:31;;;;;;;;;;;14.70;99.90;;;;;;5045937;28;19987;-72
2022/08/27 04:44:58;;;;;;;;;;;14.70;99.90;;;;;;5045757;28;20746;-72
2022/08/27 04:47:26;;;;;;;;;;;14.90;99.90;;;;;;5045851;28;19932;-71
2022/08/27 04:49:52;;;;;;;;;;;14.90;99.90;;;;;;5045709;28;19909;-71
2022/08/27 04:52:19;;;;;;;;;;;15.00;99.90;;;;;;5045579;28;19909;-70
2022/08/27 04:54:46;;;;;;;;;;;14.90;99.90;;;;;;5045692;28;20386;-70
2022/08/27 04:57:12;;;;;;;;;;;14.90;99.90;;;;;;5045242;28;19985;-71
2022/08/27 04:59:39;;;;;;;;;;;15.10;99.90;;;;;;5045371;28;20011;-71
2022/08/27 05:02:08;;;;;;;;;;;15.10;99.90;;;;;;5044229;28;19916;-71
2022/08/27 05:04:36;;;;;;;;;;;15.00;99.90;;;;;;5044715;28;20031;-70
2022/08/27 05:07:03;;;;;;;;;;;14.80;99.90;;;;;;5042368;28;19945;-70
2022/08/27 05:09:30;;;;;;;;;;;14.70;99.90;;;;;;5043635;28;19925;-71
2022/08/27 05:11:56;;;;;;;;;;;14.60;99.90;;;;;;5031861;28;19910;-71
2022/08/27 05:14:28;;;;;;;;;;;14.60;99.90;;;;;;5032025;28;19916;-70
2022/08/27 05:16:57;;;;;;;;;;;14.60;99.90;;;;;;5031963;28;20008;-72
2022/08/27 05:19:24;;;;;;;;;;;14.80;99.90;;;;;;5031845;28;19924;-69
2022/08/27 05:21:52;;;;;;;;;;;14.90;99.90;;;;;;5031391;28;19924;-68
2022/08/27 05:24:19;;;;;;;;;;;14.90;99.90;;;;;;5026551;28;20007;-69
2022/08/27 05:26:46;;;;;;;;;;;14.90;99.90;;;;;;5032645;28;19916;-69
2022/08/27 05:29:13;;;;;;;;;;;14.90;99.90;;;;;;5032524;28;19981;-69
2022/08/27 05:31:39;;;;;;;;;;;15.00;99.90;;;;;;5031865;28;19932;-69
2022/08/27 05:34:06;;;;;;;;;;;15.00;99.90;;;;;;5030581;28;20359;-69
2022/08/27 05:36:34;;;;;;;;;;;15.10;99.90;;;;;;5030469;28;19913;-70
2022/08/27 05:39:02;;;;;;;;;;;15.10;99.90;;;;;;5030293;28;19918;-69
2022/08/27 05:41:30;;;;;;;;;;;15.10;99.90;;;;;;5030339;28;19909;-69
2022/08/27 05:43:58;;;;;;;;;;;15.10;99.90;;;;;;5030111;28;19916;-69
2022/08/27 05:46:25;;;;;;;;;;;15.10;99.90;;;;;;5030046;28;19909;-68
2022/08/27 05:48:55;;;;;;;;;;;15.10;99.90;;;;;;5031602;28;19913;-70
2022/08/27 05:51:24;;;;;;;;;;;15.10;99.90;;;;;;5032279;28;19954;-69
2022/08/27 05:53:50;;;;;;;;;;;15.00;99.90;;;;;;5032077;28;19913;-69
2022/08/27 05:56:19;;;;;;;;;;;15.10;99.90;;;;;;5032048;28;20004;-69
2022/08/27 06:01:36;;;;;;;;;;;15.10;99.90;;;;;;5031911;28;19920;-69
2022/08/27 06:04:03;;;;;;;;;;;15.10;99.90;;;;;;5031682;28;19910;-69
2022/08/27 06:06:33;;;;;;;;;;;15.10;99.90;;;;;;5032075;28;19959;-70
2022/08/27 06:09:00;;;;;;;;;;;15.10;99.90;;;;;;5031689;28;20418;-69
2022/08/27 06:11:27;;;;;;;;;;;15.10;99.90;;;;;;5032030;28;19909;-69
2022/08/27 06:13:55;;;;;;;;;;;15.10;99.90;;;;;;5031843;28;19971;-69
2022/08/27 06:16:23;;;;;;;;;;;15.10;99.90;;;;;;5032059;28;20335;-69
2022/08/27 06:18:49;;;;;;;;;;;15.10;99.90;;;;;;5031703;28;19985;-69
2022/08/27 06:21:18;;;;;;;;;;;15.00;99.90;;;;;;5031125;28;19909;-69
2022/08/27 06:23:45;;;;;;;;;;;15.10;99.90;;;;;;5031208;28;19945;-69
2022/08/27 06:26:13;;;;;;;;;;;15.00;99.90;;;;;;5031667;28;19949;-70
2022/08/27 06:28:40;;;;;;;;;;;15.00;99.90;;;;;;5031339;28;19913;-69
2022/08/27 06:31:08;;;;;;;;;;;14.90;99.90;;;;;;5063429;28;19909;-69
2022/08/27 06:33:35;;;;;;;;;;;14.90;99.90;;;;;;5031327;28;19909;-69
2022/08/27 06:36:04;;;;;;;;;;;14.90;99.90;;;;;;5031519;28;19913;-68
2022/08/27 06:38:32;;;;;;;;;;;14.90;99.90;;;;;;5031316;28;19918;-69
2022/08/27 06:40:58;;;;;;;;;;;14.80;99.90;;;;;;5031391;28;19909;-69
2022/08/27 06:43:25;;;;;;;;;;;14.80;99.90;;;;;;5031347;28;19948;-68
2022/08/27 06:45:52;;;;;;;;;;;14.80;99.90;;;;;;5031022;28;19952;-68
2022/08/27 06:48:19;;;;;;;;;;;14.80;99.90;;;;;;5030983;28;19913;-69
2022/08/27 06:50:46;;;;;;;;;;;14.80;99.90;;;;;;5031322;28;19909;-70
2022/08/27 06:53:13;;;;;;;;;;;14.70;99.90;;;;;;5031311;28;19909;-69
2022/08/27 06:55:41;;;;;;;;;;;14.70;99.90;;;;;;5030979;28;19910;-70
2022/08/27 06:58:07;;;;;;;;;;;14.70;99.90;;;;;;5030330;28;20367;-69
2022/08/27 07:00:35;;;;;;;;;;;14.60;99.90;;;;;;5030974;28;19913;-68
2022/08/27 07:03:04;;;;;;;;;;;14.60;99.90;;;;;;5030763;28;19961;-68
2022/08/27 07:05:35;;;;;;;;;;;14.60;99.90;;;;;;5030914;28;19960;-68
2022/08/27 07:08:02;;;;;;;;;;;14.50;99.90;;;;;;5030973;28;20417;-69
2022/08/27 07:10:29;;;;;;;;;;;14.50;99.90;;;;;;5030862;28;19921;-69
2022/08/27 07:12:55;;;;;;;;;;;14.50;99.90;;;;;;5031278;28;20315;-68
2022/08/27 07:15:23;;;;;;;;;;;14.50;99.90;;;;;;5030696;28;19909;-69
2022/08/27 07:17:49;;;;;;;;;;;14.40;99.90;;;;;;5029493;28;19968;-69
2022/08/27 07:20:17;;;;;;;;;;;14.40;99.90;;;;;;5030732;28;19940;-70
2022/08/27 07:22:44;;;;;;;;;;;14.30;99.90;;;;;;5030884;28;19916;-69
2022/08/27 07:25:14;;;;;;;;;;;14.30;99.90;;;;;;5030733;28;19909;-69
2022/08/27 07:27:40;;;;;;;;;;;14.30;99.90;;;;;;5030561;28;20363;-70
2022/08/27 07:30:11;;;;;;;;;;;14.30;99.90;;;;;;5030578;28;19962;-69
2022/08/27 07:32:38;;;;;;;;;;;14.20;99.90;;;;;;5030565;28;19909;-69
2022/08/27 07:35:08;;;;;;;;;;;14.30;99.90;;;;;;5030646;28;19964;-69
2022/08/27 07:37:35;;;;;;;;;;;14.20;99.90;;;;;;5030743;28;19913;-68
2022/08/27 07:40:03;;;;;;;;;;;14.20;99.90;;;;;;5030407;28;19918;-69
2022/08/27 07:45:14;;;;;;;;;;;14.10;99.90;;;;;;5030769;28;20278;-69
2022/08/27 07:47:41;;;;;;;;;;;14.10;99.90;;;;;;5030172;28;20362;-69
2022/08/27 07:50:08;;;;;;;;;;;14.00;99.90;;;;;;5030601;28;19944;-69
2022/08/27 07:52:35;;;;;;;;;;;14.00;99.90;;;;;;5030450;28;19954;-68
2022/08/27 07:55:01;;;;;;;;;;;14.00;99.90;;;;;;5030267;28;20389;-68
2022/08/27 07:57:30;;;;;;;;;;;13.90;99.90;;;;;;5030746;28;19916;-68
2022/08/27 07:59:57;;;;;;;;;;;13.80;99.90;;;;;;5030111;28;19917;-68
2022/08/27 08:02:23;;;;;;;;;;;13.80;99.90;;;;;;5030345;28;19940;-68
2022/08/27 08:04:50;;;;;;;;;;;13.80;99.90;;;;;;5030438;28;20000;-68
2022/08/27 08:07:17;;;;;;;;;;;13.80;99.90;;;;;;5030437;28;19917;-68
2022/08/27 08:09:45;;;;;;;;;;;13.80;99.90;;;;;;5029706;28;19928;-69
2022/08/27 08:12:12;;;;;;;;;;;13.80;99.90;;;;;;5030355;28;20274;-69
2022/08/27 08:14:38;;;;;;;;;;;13.80;99.90;;;;;;5029993;28;19909;-69
2022/08/27 08:17:05;;;;;;;;;;;13.70;99.90;;;;;;5030230;28;19915;-68
2022/08/27 08:19:32;;;;;;;;;;;13.80;99.90;;;;;;5030212;28;19917;-68
2022/08/27 08:21:59;;;;;;;;;;;13.80;99.90;;;;;;5029781;28;19909;-69
2022/08/27 08:24:26;;;;;;;;;;;13.80;99.90;;;;;;5030154;28;19913;-69
2022/08/27 08:26:52;;;;;;;;;;;13.80;99.90;;;;;;5030135;28;19956;-69
2022/08/27 08:29:19;;;;;;;;;;;13.80;99.90;;;;;;5030116;28;19915;-69
2022/08/27 08:31:46;;;;;;;;;;;13.80;99.90;;;;;;5029736;28;19913;-69
2022/08/27 08:34:13;;;;;;;;;;;13.80;99.90;;;;;;5030131;28;19910;-69
2022/08/27 08:36:39;;;;;;;;;;;13.80;99.90;;;;;;5029837;28;19936;-69
2022/08/27 08:39:06;;;;;;;;;;;13.80;99.90;;;;;;5029868;28;19950;-69
2022/08/27 08:41:38;;;;;;;;;;;13.80;99.90;;;;;;5030127;28;19909;-69
2022/08/27 08:44:23;;;;;;;;;;;13.70;99.90;;;;;;5029776;28;19916;-68
2022/08/27 08:46:54;;;;;;;;;;;13.70;99.90;;;;;;5032925;28;20319;-68
2022/08/27 08:49:20;;;;;;;;;;;13.70;99.90;;;;;;5033309;28;19914;-68
2022/08/27 08:51:47;;;;;;;;;;;13.70;99.90;;;;;;5032889;28;19954;-68
2022/08/27 08:54:19;;;;;;;;;;;13.70;99.90;;;;;;5033081;28;19910;-68
2022/08/27 08:56:52;;;;;;;;;;;13.70;99.90;;;;;;5033147;28;19932;-69
2022/08/27 08:59:23;;;;;;;;;;;13.70;99.90;;;;;;5032876;28;20415;-69
2022/08/27 09:01:50;;;;;;;;;;;13.70;99.90;;;;;;5032756;28;19960;-68
2022/08/27 09:04:17;;;;;;;;;;;13.70;99.90;;;;;;5032974;28;19916;-69
2022/08/27 09:06:51;;;;;;;;;;;13.70;99.90;;;;;;5032861;28;20359;-69
2022/08/27 09:09:22;;;;;;;;;;;13.70;99.90;;;;;;5032534;28;19921;-68
2022/08/27 09:11:58;;;;;;;;;;;13.60;99.90;;;;;;5032688;28;20385;-68
2022/08/27 09:14:41;;;;;;;;;;;13.60;99.90;;;;;;5032267;28;19909;-68
2022/08/27 09:17:08;;;;;;;;;;;13.60;99.90;;;;;;5032639;28;19916;-69
2022/08/27 09:19:34;;;;;;;;;;;13.50;99.90;;;;;;5032035;28;19923;-68
2022/08/27 09:22:17;;;;;;;;;;;13.50;99.90;;;;;;5032535;28;20298;-68
2022/08/27 09:25:02;;;;;;;;;;;13.50;99.90;;;;;;5032277;28;20279;-69
2022/08/27 09:27:30;;;;;;;;;;;13.50;99.90;;;;;;5032335;28;20000;-68
2022/08/27 09:29:57;;;;;;;;;;;13.50;99.90;;;;;;5032120;28;19979;-68
2022/08/27 09:32:26;;;;;;;;;;;13.60;99.90;;;;;;5032574;28;20382;-68
2022/08/27 09:34:56;;;;;;;;;;;13.50;99.90;;;;;;5032460;28;20007;-69
2022/08/27 09:37:24;;;;;;;;;;;13.60;99.90;;;;;;5032469;28;20001;-68
2022/08/27 09:40:11;;;;;;;;;;;13.60;99.90;;;;;;5031904;28;19970;-68
2022/08/27 09:42:43;;;;;;;;;;;13.60;99.90;;;;;;5021989;28;19953;-69
2022/08/27 09:45:14;;;;;;;;;;;13.50;99.90;;;;;;5032072;28;20363;-68
2022/08/27 09:47:52;;;;;;;;;;;13.50;99.90;;;;;;5031837;28;19917;-69
2022/08/27 09:50:21;;;;;;;;;;;13.50;99.90;;;;;;5032213;28;19909;-68
2022/08/27 09:52:54;;;;;;;;;;;13.50;99.90;;;;;;5032089;28;19909;-68
2022/08/27 09:55:45;;;;;;;;;;;13.50;99.90;;;;;;5032150;28;19913;-68
2022/08/27 09:58:20;;;;;;;;;;;13.50;99.90;;;;;;5031955;28;19916;-69
2022/08/27 10:00:47;;;;;;;;;;;13.50;99.90;;;;;;5032227;28;20291;-69
2022/08/27 10:03:14;;;;;;;;;;;13.40;99.90;;;;;;5031930;28;19996;-69
2022/08/27 10:05:49;;;;;;;;;;;13.40;99.90;;;;;;5031697;28;19913;-69
2022/08/27 10:08:22;;;;;;;;;;;13.40;99.90;;;;;;5031667;28;19954;-69
2022/08/27 10:10:54;;;;;;;;;;;13.40;99.90;;;;;;5031818;28;19909;-70
2022/08/27 10:13:23;;;;;;;;;;;13.40;99.90;;;;;;5031849;28;19929;-70
2022/08/27 10:15:55;;;;;;;;;;;13.40;99.90;;;;;;5031467;28;19910;-70
2022/08/27 10:18:37;;;;;;;;;;;13.40;99.90;;;;;;5031762;28;19917;-70
2022/08/27 10:21:06;;;;;;;;;;;13.40;99.90;;;;;;5031717;28;19913;-68
2022/08/27 10:23:51;;;;;;;;;;;13.40;99.90;;;;;;5031869;28;19909;-69
2022/08/27 10:26:26;;;;;;;;;;;13.40;99.90;;;;;;5031663;28;20379;-70
2022/08/27 10:29:12;;;;;;;;;;;13.40;99.90;;;;;;5031425;28;19916;-69
2022/08/27 10:31:57;;;;;;;;;;;13.30;99.90;;;;;;5031519;28;20315;-68
2022/08/27 10:34:30;;;;;;;;;;;13.30;99.90;;;;;;5031454;28;19909;-68
2022/08/27 10:36:57;;;;;;;;;;;13.30;99.90;;;;;;5031571;28;19909;-69
2022/08/27 10:39:26;;;;;;;;;;;13.30;99.90;;;;;;5031302;28;19917;-69
2022/08/27 10:42:11;;;;;;;;;;;13.30;99.90;;;;;;5031284;28;19949;-69
2022/08/27 10:44:46;;;;;;;;;;;13.30;99.90;;;;;;5031317;28;20042;-68
2022/08/27 10:47:18;;;;;;;;;;;13.30;99.90;;;;;;5031551;28;19913;-68
2022/08/27 10:50:03;;;;;;;;;;;13.20;99.90;;;;;;5030116;28;19985;-70
2022/08/27 10:52:45;;;;;;;;;;;13.20;99.90;;;;;;5031241;28;19961;-68
2022/08/27 10:55:16;;;;;;;;;;;13.20;99.90;;;;;;5031367;28;20367;-68
2022/08/27 10:57:48;;;;;;;;;;;13.30;99.90;;;;;;5031135;28;19955;-68
2022/08/27 11:00:19;;;;;;;;;;;13.30;99.90;;;;;;5031184;28;19917;-69
2022/08/27 11:02:53;;;;;;;;;;;13.20;99.90;;;;;;5031072;28;19955;-69
2022/08/27 11:05:30;;;;;;;;;;;13.20;99.90;;;;;;5031216;28;19934;-68
2022/08/27 11:08:11;;;;;;;;;;;13.20;99.90;;;;;;5030334;28;19916;-69
2022/08/27 11:10:48;;;;;;;;;;;13.30;99.90;;;;;;5031122;28;19921;-69
2022/08/27 11:13:37;;;;;;;;;;;13.30;99.90;;;;;;5030913;28;20046;-69
2022/08/27 11:16:11;;;;;;;;;;;13.30;99.90;;;;;;5031065;28;19921;-69
2022/08/27 11:18:44;;;;;;;;;;;13.40;99.90;;;;;;5030859;28;19967;-68
2022/08/27 11:21:19;;;;;;;;;;;13.40;99.90;;;;;;5030811;28;19958;-69
2022/08/27 11:23:50;;;;;;;;;;;13.30;99.90;;;;;;5030390;28;19916;-69
2022/08/27 11:26:16;;;;;;;;;;;13.10;99.90;;;;;;5031004;28;20442;-68
2022/08/27 11:28:52;;;;;;;;;;;13.20;99.90;;;;;;5062810;28;19933;-68
2022/08/27 11:31:22;;;;;;;;;;;13.10;99.90;;;;;;5030786;28;19909;-69
2022/08/27 11:34:12;;;;;;;;;;;13.00;99.90;;;;;;5030616;28;19909;-68
2022/08/27 11:36:39;;;;;;;;;;;13.00;99.90;;;;;;5030874;28;19954;-69
2022/08/27 11:39:18;;;;;;;;;;;12.90;99.90;;;;;;5030812;28;19917;-68
2022/08/27 11:42:00;;;;;;;;;;;12.90;99.90;;;;;;5030571;28;19909;-68
2022/08/27 11:44:27;;;;;;;;;;;13.00;99.90;;;;;;5030550;28;19961;-69
2022/08/27 11:46:56;;;;;;;;;;;13.10;99.90;;;;;;5030725;28;19916;-69
2022/08/27 11:49:55;;;;;;;;;;;13.10;99.90;;;;;;5030475;28;19909;-69
2022/08/27 11:52:34;;;;;;;;;;;13.10;99.90;;;;;;5019112;28;19950;-69
2022/08/27 11:55:14;;;;;;;;;;;13.20;99.90;;;;;;5030559;28;19916;-69
2022/08/27 11:57:41;;;;;;;;;;;13.20;99.90;;;;;;5030237;28;19913;-69
2022/08/27 12:00:32;;;;;;;;;;;13.20;99.90;;;;;;5030277;28;19917;-69
2022/08/27 12:03:04;;;;;;;;;;;13.20;99.90;;;;;;5023126;28;19939;-69
2022/08/27 12:05:42;;;;;;;;;;;13.10;99.90;;;;;;5030218;28;19920;-69
2022/08/27 12:08:29;;;;;;;;;;;13.20;99.90;;;;;;5030299;28;19924;-69
2022/08/27 12:11:08;;;;;;;;;;;13.10;99.90;;;;;;5030430;28;20295;-70
2022/08/27 12:13:41;;;;;;;;;;;13.10;99.90;;;;;;5030052;28;19996;-69
2022/08/27 12:16:34;;;;;;;;;;;13.00;99.90;;;;;;5030316;28;19909;-70
2022/08/27 12:19:03;;;;;;;;;;;13.00;99.90;;;;;;5007079;28;19921;-68
2022/08/27 12:21:30;;;;;;;;;;;13.00;99.90;;;;;;5032719;28;19913;-69
2022/08/27 12:23:57;;;;;;;;;;;12.90;99.90;;;;;;5033508;28;19909;-69
2022/08/27 12:26:23;;;;;;;;;;;13.00;99.90;;;;;;5033713;28;19910;-69
2022/08/27 12:28:51;;;;;;;;;;;12.90;99.90;;;;;;5033531;28;19913;-69
2022/08/27 12:31:22;;;;;;;;;;;12.90;99.90;;;;;;5033661;28;19917;-69
2022/08/27 12:33:52;;;;;;;;;;;12.90;99.90;;;;;;5033435;28;20381;-69
2022/08/27 12:36:21;;;;;;;;;;;12.90;99.90;;;;;;5033532;28;19909;-69
2022/08/27 12:38:51;;;;;;;;;;;12.90;99.90;;;;;;5033481;28;19969;-69
2022/08/27 12:41:27;;;;;;;;;;;12.90;99.90;;;;;;5033457;28;19915;-68
2022/08/27 12:44:05;;;;;;;;;;;12.90;99.90;;;;;;5033135;28;19932;-69
2022/08/27 12:46:31;;;;;;;;;;;12.90;99.90;;;;;;5033464;28;19948;-69
2022/08/27 12:48:59;;;;;;;;;;;13.00;99.90;;;;;;5033230;28;19909;-69
2022/08/27 12:51:45;;;;;;;;;;;13.00;99.90;;;;;;5033457;28;20003;-69
2022/08/27 12:54:21;;;;;;;;;;;13.00;99.90;;;;;;5033224;28;19940;-69
2022/08/27 12:56:47;;;;;;;;;;;13.00;99.90;;;;;;5033352;28;19993;-69
2022/08/27 12:59:29;;;;;;;;;;;13.00;99.90;;;;;;5032903;28;19917;-69
2022/08/27 13:02:14;;;;;;;;;;;13.10;99.90;;;;;;5032947;28;19913;-70
2022/08/27 13:04:41;;;;;;;;;;;13.00;99.90;;;;;;5031837;28;20309;-69
2022/08/27 13:07:08;;;;;;;;;;;12.90;99.90;;;;;;5033113;28;20020;-69
2022/08/27 13:09:37;;;;;;;;;;;12.80;99.90;;;;;;5032570;28;19927;-69
2022/08/27 13:12:06;;;;;;;;;;;12.70;99.90;;;;;;5035191;28;19917;-69
2022/08/27 13:14:37;;;;;;;;;;;12.70;99.90;;;;;;5033691;28;20009;-68
2022/08/27 13:17:08;;;;;;;;;;;12.70;99.90;;;;;;5032729;28;19944;-68
2022/08/27 13:19:54;;;;;;;;;;;12.60;99.90;;;;;;5032822;28;19924;-69
2022/08/27 13:22:26;;;;;;;;;;;12.70;99.90;;;;;;5032542;28;19956;-69
2022/08/27 13:24:54;;;;;;;;;;;12.60;99.90;;;;;;5032770;28;19909;-69
2022/08/27 13:27:26;;;;;;;;;;;12.60;99.90;;;;;;5032634;28;19956;-69
2022/08/27 13:29:54;;;;;;;;;;;12.60;99.90;;;;;;5032502;28;19995;-69
2022/08/27 13:32:20;;;;;;;;;;;12.60;99.90;;;;;;5032134;28;19939;-69
2022/08/27 13:34:47;;;;;;;;;;;12.40;99.90;;;;;;5032451;28;19952;-69
2022/08/27 13:37:32;;;;;;;;;;;12.40;99.90;;;;;;5032443;28;19941;-69
2022/08/27 13:39:59;;;;;;;;;;;12.50;99.90;;;;;;5032086;28;19917;-69
2022/08/27 13:42:29;;;;;;;;;;;12.50;99.90;;;;;;5032428;28;19909;-69
2022/08/27 13:45:00;;;;;;;;;;;12.60;99.90;;;;;;5032478;28;19909;-70
2022/08/27 13:47:27;;;;;;;;;;;12.70;99.90;;;;;;5032494;28;20003;-69
2022/08/27 13:50:06;;;;;;;;;;;12.70;99.90;;;;;;5032201;28;19909;-70
2022/08/27 13:54:11;;;;;;;;;;;12.80;99.90;;;;;;5032236;28;19999;-69
2022/08/27 13:55:23;;;;;;;;;;;12.80;99.90;;;;;;5032215;28;19909;-69
2022/08/27 13:57:51;;;;;;;;;;;12.80;99.90;;;;;;5031979;28;20436;-68
2022/08/27 14:00:20;;;;;;;;;;;12.80;99.90;;;;;;5032236;28;19917;-68
2022/08/27 14:02:47;;;;;;;;;;;12.80;99.90;;;;;;5032298;28;20443;-69
2022/08/27 14:05:22;;;;;;;;;;;12.70;99.90;;;;;;5032103;28;20016;-68
2022/08/27 14:07:59;;;;;;;;;;;12.80;99.90;;;;;;5031949;28;19916;-69
2022/08/27 14:10:32;;;;;;;;;;;12.90;99.90;;;;;;5031947;28;19928;-69
2022/08/27 14:13:00;;;;;;;;;;;13.00;99.90;;;;;;5031909;28;20386;-68
2022/08/27 14:15:41;;;;;;;;;;;13.10;99.90;;;;;;5032041;28;19909;-69
2022/08/27 14:18:19;;;;;;;;;;;13.10;99.90;;;;;;5032066;28;19952;-68
2022/08/27 14:20:46;;;;;;;;;;;13.00;99.90;;;;;;5031984;28;20532;-69
2022/08/27 14:23:13;;;;;;;;;;;12.90;99.90;;;;;;5031926;28;19909;-69
2022/08/27 14:25:40;;;;;;;;;;;12.90;99.90;;;;;;5031741;28;19954;-69
2022/08/27 14:28:06;;;;;;;;;;;12.80;99.90;;;;;;5031594;28;20377;-70
2022/08/27 14:30:33;;;;;;;;;;;12.80;99.90;;;;;;5014132;28;20324;-68
2022/08/27 14:33:03;;;;;;;;;;;12.70;99.90;;;;;;5031530;28;19956;-68
2022/08/27 14:35:31;;;;;;;;;;;12.70;99.90;;;;;;5031768;28;19969;-69
2022/08/27 14:37:59;;;;;;;;;;;12.60;99.90;;;;;;5031416;28;20380;-69
2022/08/27 14:40:25;;;;;;;;;;;12.50;99.90;;;;;;5031455;28;20355;-69
2022/08/27 14:42:52;;;;;;;;;;;12.50;99.90;;;;;;5030436;28;19909;-69
2022/08/27 14:45:19;;;;;;;;;;;12.50;99.90;;;;;;5031452;28;19917;-69
2022/08/27 14:47:46;;;;;;;;;;;12.40;99.90;;;;;;5031669;28;19909;-69
2022/08/27 14:50:13;;;;;;;;;;;12.50;99.90;;;;;;5031471;28;19955;-69
2022/08/27 14:52:39;;;;;;;;;;;12.40;99.90;;;;;;5031404;28;19909;-69